sensor_id;sensor_type;location;lat;lon;timestamp;P1;durP1;ratioP1;P2;durP2;ratioP2
13609;SDS011;6876;50.788;4.940;2023-01-16T00:02:36;1999.90;;;999.90;;
13609;SDS011;6876;50.788;4.940;2023-01-16T00:05:23;1999.90;;;999.90;;
13609;SDS011;6876;50.788;4.940;2023-01-16T00:08:10;1999.90;;;999.90;;
13609;SDS011;6876;50.788;4.940;2023-01-16T00:10:58;1999.90;;;999.90;;
13609;SDS011;6876;50.788;4.940;2023-01-16T00:13:46;1999.90;;;999.90;;
13609;SDS011;6876;50.788;4.940;2023-01-16T00:16:34;1999.90;;;999.90;;
13609;SDS011;6876;50.788;4.940;2023-01-16T00:19:21;1999.90;;;999.90;;
13609;SDS011;6876;50.788;4.940;2023-01-16T00:22:08;1999.90;;;999.90;;
13609;SDS011;6876;50.788;4.940;2023-01-16T00:24:55;1999.90;;;999.90;;
13609;SDS011;6876;50.788;4.940;2023-01-16T00:27:43;1999.90;;;999.90;;
13609;SDS011;6876;50.788;4.940;2023-01-16T00:30:31;1999.90;;;999.90;;
13609;SDS011;6876;50.788;4.940;2023-01-16T00:33:19;1999.90;;;999.90;;
13609;SDS011;6876;50.788;4.940;2023-01-16T00:36:06;1999.90;;;999.90;;
13609;SDS011;6876;50.788;4.940;2023-01-16T00:38:54;1999.90;;;999.90;;
13609;SDS011;6876;50.788;4.940;2023-01-16T00:41:41;1999.90;;;999.90;;
13609;SDS011;6876;50.788;4.940;2023-01-16T00:44:29;1999.90;;;999.90;;
13609;SDS011;6876;50.788;4.940;2023-01-16T00:47:17;1999.90;;;999.90;;
13609;SDS011;6876;50.788;4.940;2023-01-16T00:50:05;1999.90;;;999.90;;
13609;SDS011;6876;50.788;4.940;2023-01-16T00:52:53;1999.90;;;999.90;;
13609;SDS011;6876;50.788;4.940;2023-01-16T00:55:40;1999.90;;;999.90;;
13609;SDS011;6876;50.788;4.940;2023-01-16T00:58:27;1999.90;;;999.90;;
13609;SDS011;6876;50.788;4.940;2023-01-16T01:01:15;1999.90;;;999.90;;
13609;SDS011;6876;50.788;4.940;2023-01-16T01:04:03;1999.90;;;999.90;;
13609;SDS011;6876;50.788;4.940;2023-01-16T01:06:51;1999.90;;;999.90;;
13609;SDS011;6876;50.788;4.940;2023-01-16T01:09:38;1999.90;;;999.90;;
13609;SDS011;6876;50.788;4.940;2023-01-16T01:12:25;1999.90;;;999.90;;
13609;SDS011;6876;50.788;4.940;2023-01-16T01:15:13;1999.90;;;999.90;;
13609;SDS011;6876;50.788;4.940;2023-01-16T01:18:00;1999.90;;;999.90;;
13609;SDS011;6876;50.788;4.940;2023-01-16T01:20:49;1999.90;;;999.90;;
13609;SDS011;6876;50.788;4.940;2023-01-16T01:23:36;1999.90;;;999.90;;
13609;SDS011;6876;50.788;4.940;2023-01-16T01:26:23;1999.90;;;999.90;;
13609;SDS011;6876;50.788;4.940;2023-01-16T01:29:10;1999.90;;;999.90;;
13609;SDS011;6876;50.788;4.940;2023-01-16T01:31:58;1999.90;;;999.90;;
13609;SDS011;6876;50.788;4.940;2023-01-16T01:34:46;1999.90;;;999.90;;
13609;SDS011;6876;50.788;4.940;2023-01-16T01:37:34;1999.90;;;999.90;;
13609;SDS011;6876;50.788;4.940;2023-01-16T01:40:22;1999.90;;;999.90;;
13609;SDS011;6876;50.788;4.940;2023-01-16T01:43:11;1999.90;;;999.90;;
13609;SDS011;6876;50.788;4.940;2023-01-16T01:46:00;1999.90;;;999.90;;
13609;SDS011;6876;50.788;4.940;2023-01-16T01:48:48;1999.90;;;999.90;;
13609;SDS011;6876;50.788;4.940;2023-01-16T01:51:38;1999.90;;;999.90;;
13609;SDS011;6876;50.788;4.940;2023-01-16T01:54:30;1999.90;;;999.90;;
13609;SDS011;6876;50.788;4.940;2023-01-16T01:57:22;1999.90;;;999.90;;
13609;SDS011;6876;50.788;4.940;2023-01-16T02:00:14;1999.90;;;999.90;;
13609;SDS011;6876;50.788;4.940;2023-01-16T02:03:04;1999.90;;;999.90;;
13609;SDS011;6876;50.788;4.940;2023-01-16T02:05:54;1999.90;;;999.90;;
13609;SDS011;6876;50.788;4.940;2023-01-16T02:08:43;1999.90;;;999.90;;
13609;SDS011;6876;50.788;4.940;2023-01-16T02:11:32;1999.90;;;999.90;;
13609;SDS011;6876;50.788;4.940;2023-01-16T02:14:22;1999.90;;;999.90;;
13609;SDS011;6876;50.788;4.940;2023-01-16T02:17:12;1999.90;;;999.90;;
13609;SDS011;6876;50.788;4.940;2023-01-16T02:20:19;1999.90;;;999.90;;
13609;SDS011;6876;50.788;4.940;2023-01-16T02:26:54;1999.90;;;999.90;;
13609;SDS011;6876;50.788;4.940;2023-01-16T02:30:09;1999.90;;;999.90;;
13609;SDS011;6876;50.788;4.940;2023-01-16T02:33:16;1999.90;;;999.90;;
13609;SDS011;6876;50.788;4.940;2023-01-16T02:36:15;1999.90;;;999.90;;
13609;SDS011;6876;50.788;4.940;2023-01-16T02:39:10;1999.90;;;999.90;;
13609;SDS011;6876;50.788;4.940;2023-01-16T02:42:04;1999.90;;;999.90;;
13609;SDS011;6876;50.788;4.940;2023-01-16T02:45:01;1999.90;;;999.90;;
13609;SDS011;6876;50.788;4.940;2023-01-16T02:47:53;1999.90;;;999.90;;
13609;SDS011;6876;50.788;4.940;2023-01-16T02:50:47;1999.90;;;999.90;;
13609;SDS011;6876;50.788;4.940;2023-01-16T02:53:45;1999.90;;;999.90;;
13609;SDS011;6876;50.788;4.940;2023-01-16T02:56:38;1999.90;;;999.90;;
13609;SDS011;6876;50.788;4.940;2023-01-16T02:59:31;1999.90;;;999.90;;
13609;SDS011;6876;50.788;4.940;2023-01-16T03:02:19;1999.90;;;999.90;;
13609;SDS011;6876;50.788;4.940;2023-01-16T03:05:06;1999.90;;;999.90;;
13609;SDS011;6876;50.788;4.940;2023-01-16T03:08:02;1999.90;;;999.90;;
13609;SDS011;6876;50.788;4.940;2023-01-16T03:11:08;1999.90;;;999.90;;
13609;SDS011;6876;50.788;4.940;2023-01-16T03:17:15;1999.90;;;999.90;;
13609;SDS011;6876;50.788;4.940;2023-01-16T03:20:12;1999.90;;;999.90;;
13609;SDS011;6876;50.788;4.940;2023-01-16T03:23:11;1999.90;;;999.90;;
13609;SDS011;6876;50.788;4.940;2023-01-16T03:26:01;1999.90;;;999.90;;
13609;SDS011;6876;50.788;4.940;2023-01-16T03:28:55;1999.90;;;999.90;;
13609;SDS011;6876;50.788;4.940;2023-01-16T03:31:50;1999.90;;;999.90;;
13609;SDS011;6876;50.788;4.940;2023-01-16T03:34:43;1999.90;;;999.90;;
13609;SDS011;6876;50.788;4.940;2023-01-16T03:37:37;1999.90;;;999.90;;
13609;SDS011;6876;50.788;4.940;2023-01-16T03:40:30;1999.90;;;999.90;;
13609;SDS011;6876;50.788;4.940;2023-01-16T03:43:21;1999.90;;;999.90;;
13609;SDS011;6876;50.788;4.940;2023-01-16T03:46:14;1999.90;;;999.90;;
13609;SDS011;6876;50.788;4.940;2023-01-16T03:49:05;1999.90;;;999.90;;
13609;SDS011;6876;50.788;4.940;2023-01-16T03:51:56;1999.90;;;999.90;;
13609;SDS011;6876;50.788;4.940;2023-01-16T03:54:48;1999.90;;;999.90;;
13609;SDS011;6876;50.788;4.940;2023-01-16T03:57:45;1999.90;;;999.90;;
13609;SDS011;6876;50.788;4.940;2023-01-16T04:00:37;1999.90;;;999.90;;
13609;SDS011;6876;50.788;4.940;2023-01-16T04:03:37;1999.90;;;999.90;;
13609;SDS011;6876;50.788;4.940;2023-01-16T04:06:30;1999.90;;;999.90;;
13609;SDS011;6876;50.788;4.940;2023-01-16T04:09:23;1999.90;;;999.90;;
13609;SDS011;6876;50.788;4.940;2023-01-16T04:12:14;1999.90;;;999.90;;
13609;SDS011;6876;50.788;4.940;2023-01-16T04:15:07;1999.90;;;999.90;;
13609;SDS011;6876;50.788;4.940;2023-01-16T04:17:56;1999.90;;;999.90;;
13609;SDS011;6876;50.788;4.940;2023-01-16T04:20:45;1999.90;;;999.90;;
13609;SDS011;6876;50.788;4.940;2023-01-16T04:23:34;1999.90;;;999.90;;
13609;SDS011;6876;50.788;4.940;2023-01-16T04:26:22;1999.90;;;999.90;;
13609;SDS011;6876;50.788;4.940;2023-01-16T04:29:09;1999.90;;;999.90;;
13609;SDS011;6876;50.788;4.940;2023-01-16T04:31:58;1999.90;;;999.90;;
13609;SDS011;6876;50.788;4.940;2023-01-16T04:34:45;1999.90;;;999.90;;
13609;SDS011;6876;50.788;4.940;2023-01-16T04:37:32;1999.90;;;999.90;;
13609;SDS011;6876;50.788;4.940;2023-01-16T04:40:20;1999.90;;;999.90;;
13609;SDS011;6876;50.788;4.940;2023-01-16T04:43:07;1999.90;;;999.90;;
13609;SDS011;6876;50.788;4.940;2023-01-16T04:45:54;1999.90;;;999.90;;
13609;SDS011;6876;50.788;4.940;2023-01-16T04:48:43;1999.90;;;999.90;;
13609;SDS011;6876;50.788;4.940;2023-01-16T04:51:30;1999.90;;;999.90;;
13609;SDS011;6876;50.788;4.940;2023-01-16T04:54:18;1999.90;;;999.90;;
13609;SDS011;6876;50.788;4.940;2023-01-16T04:57:05;1999.90;;;999.90;;
13609;SDS011;6876;50.788;4.940;2023-01-16T04:59:53;1999.90;;;999.90;;
13609;SDS011;6876;50.788;4.940;2023-01-16T05:02:40;1999.90;;;999.90;;
13609;SDS011;6876;50.788;4.940;2023-01-16T05:05:28;1999.90;;;999.90;;
13609;SDS011;6876;50.788;4.940;2023-01-16T05:08:15;1999.90;;;999.90;;
13609;SDS011;6876;50.788;4.940;2023-01-16T05:11:03;1999.90;;;999.90;;
13609;SDS011;6876;50.788;4.940;2023-01-16T05:13:50;1999.90;;;999.90;;
13609;SDS011;6876;50.788;4.940;2023-01-16T05:16:38;1999.90;;;999.90;;
13609;SDS011;6876;50.788;4.940;2023-01-16T05:19:27;1999.90;;;999.90;;
13609;SDS011;6876;50.788;4.940;2023-01-16T05:22:15;1999.90;;;999.90;;
13609;SDS011;6876;50.788;4.940;2023-01-16T05:25:03;1999.90;;;999.90;;
13609;SDS011;6876;50.788;4.940;2023-01-16T05:27:51;1999.90;;;999.90;;
13609;SDS011;6876;50.788;4.940;2023-01-16T05:30:38;1999.90;;;999.90;;
13609;SDS011;6876;50.788;4.940;2023-01-16T05:33:25;1999.90;;;999.90;;
13609;SDS011;6876;50.788;4.940;2023-01-16T05:36:13;1999.90;;;999.90;;
13609;SDS011;6876;50.788;4.940;2023-01-16T05:39:01;1999.90;;;999.90;;
13609;SDS011;6876;50.788;4.940;2023-01-16T05:41:49;1999.90;;;999.90;;
13609;SDS011;6876;50.788;4.940;2023-01-16T05:44:36;1999.90;;;999.90;;
13609;SDS011;6876;50.788;4.940;2023-01-16T05:47:23;1999.90;;;999.90;;
13609;SDS011;6876;50.788;4.940;2023-01-16T05:50:11;1999.90;;;999.90;;
13609;SDS011;6876;50.788;4.940;2023-01-16T05:52:58;1999.90;;;999.90;;
13609;SDS011;6876;50.788;4.940;2023-01-16T05:55:46;1999.90;;;999.90;;
13609;SDS011;6876;50.788;4.940;2023-01-16T05:58:34;1999.90;;;999.90;;
13609;SDS011;6876;50.788;4.940;2023-01-16T06:01:21;1999.90;;;999.90;;
13609;SDS011;6876;50.788;4.940;2023-01-16T06:04:08;1999.90;;;999.90;;
13609;SDS011;6876;50.788;4.940;2023-01-16T06:06:55;1999.90;;;999.90;;
13609;SDS011;6876;50.788;4.940;2023-01-16T06:09:43;1999.90;;;999.90;;
13609;SDS011;6876;50.788;4.940;2023-01-16T06:12:31;1999.90;;;999.90;;
13609;SDS011;6876;50.788;4.940;2023-01-16T06:15:19;1999.90;;;999.90;;
13609;SDS011;6876;50.788;4.940;2023-01-16T06:18:06;1999.90;;;999.90;;
13609;SDS011;6876;50.788;4.940;2023-01-16T06:20:53;1999.90;;;999.90;;
13609;SDS011;6876;50.788;4.940;2023-01-16T06:23:41;1999.90;;;999.90;;
13609;SDS011;6876;50.788;4.940;2023-01-16T06:26:28;1999.90;;;999.90;;
13609;SDS011;6876;50.788;4.940;2023-01-16T06:29:17;1999.90;;;999.90;;
13609;SDS011;6876;50.788;4.940;2023-01-16T06:32:04;1999.90;;;999.90;;
13609;SDS011;6876;50.788;4.940;2023-01-16T06:34:51;1999.90;;;999.90;;
13609;SDS011;6876;50.788;4.940;2023-01-16T06:37:38;1999.90;;;999.90;;
13609;SDS011;6876;50.788;4.940;2023-01-16T06:40:26;1999.90;;;999.90;;
13609;SDS011;6876;50.788;4.940;2023-01-16T06:43:13;1999.90;;;999.90;;
13609;SDS011;6876;50.788;4.940;2023-01-16T06:46:03;1999.90;;;999.90;;
13609;SDS011;6876;50.788;4.940;2023-01-16T06:48:50;1999.90;;;999.90;;
13609;SDS011;6876;50.788;4.940;2023-01-16T06:51:37;1999.90;;;999.90;;
13609;SDS011;6876;50.788;4.940;2023-01-16T06:54:25;1999.90;;;999.90;;
13609;SDS011;6876;50.788;4.940;2023-01-16T06:57:12;1999.90;;;999.90;;
13609;SDS011;6876;50.788;4.940;2023-01-16T07:00:00;1999.90;;;999.90;;
13609;SDS011;6876;50.788;4.940;2023-01-16T07:02:52;1999.90;;;999.90;;
13609;SDS011;6876;50.788;4.940;2023-01-16T07:05:41;1999.90;;;999.90;;
13609;SDS011;6876;50.788;4.940;2023-01-16T07:08:29;1999.90;;;999.90;;
13609;SDS011;6876;50.788;4.940;2023-01-16T07:11:17;1999.90;;;999.90;;
13609;SDS011;6876;50.788;4.940;2023-01-16T07:14:04;1999.90;;;999.90;;
13609;SDS011;6876;50.788;4.940;2023-01-16T07:17:10;1999.90;;;999.90;;
13609;SDS011;6876;50.788;4.940;2023-01-16T07:20:16;1999.90;;;999.90;;
13609;SDS011;6876;50.788;4.940;2023-01-16T07:23:22;1999.90;;;999.90;;
13609;SDS011;6876;50.788;4.940;2023-01-16T07:26:13;1999.90;;;999.90;;
13609;SDS011;6876;50.788;4.940;2023-01-16T07:29:02;1999.90;;;999.90;;
13609;SDS011;6876;50.788;4.940;2023-01-16T07:31:50;1999.90;;;999.90;;
13609;SDS011;6876;50.788;4.940;2023-01-16T07:34:37;1999.90;;;999.90;;
13609;SDS011;6876;50.788;4.940;2023-01-16T07:37:26;1999.90;;;999.90;;
13609;SDS011;6876;50.788;4.940;2023-01-16T07:40:13;1999.90;;;999.90;;
13609;SDS011;6876;50.788;4.940;2023-01-16T07:43:00;1999.90;;;999.90;;
13609;SDS011;6876;50.788;4.940;2023-01-16T07:45:48;1999.90;;;999.90;;
13609;SDS011;6876;50.788;4.940;2023-01-16T07:48:37;1999.90;;;999.90;;
13609;SDS011;6876;50.788;4.940;2023-01-16T07:51:24;1999.90;;;999.90;;
13609;SDS011;6876;50.788;4.940;2023-01-16T07:54:13;1999.90;;;999.90;;
13609;SDS011;6876;50.788;4.940;2023-01-16T07:57:00;1999.90;;;999.90;;
13609;SDS011;6876;50.788;4.940;2023-01-16T07:59:48;1999.90;;;999.90;;
13609;SDS011;6876;50.788;4.940;2023-01-16T08:02:35;1999.90;;;999.90;;
13609;SDS011;6876;50.788;4.940;2023-01-16T08:05:22;1999.90;;;999.90;;
13609;SDS011;6876;50.788;4.940;2023-01-16T08:08:10;1999.90;;;999.90;;
13609;SDS011;6876;50.788;4.940;2023-01-16T08:11:00;1999.90;;;999.90;;
13609;SDS011;6876;50.788;4.940;2023-01-16T08:14:10;1999.90;;;999.90;;
13609;SDS011;6876;50.788;4.940;2023-01-16T08:16:57;1999.90;;;999.90;;
13609;SDS011;6876;50.788;4.940;2023-01-16T08:19:45;1999.90;;;999.90;;
13609;SDS011;6876;50.788;4.940;2023-01-16T08:22:32;1999.90;;;999.90;;
13609;SDS011;6876;50.788;4.940;2023-01-16T08:25:23;1999.90;;;999.90;;
13609;SDS011;6876;50.788;4.940;2023-01-16T08:28:11;1999.90;;;999.90;;
13609;SDS011;6876;50.788;4.940;2023-01-16T08:31:02;1999.90;;;999.90;;
13609;SDS011;6876;50.788;4.940;2023-01-16T08:33:52;1999.90;;;999.90;;
13609;SDS011;6876;50.788;4.940;2023-01-16T08:36:40;1999.90;;;999.90;;
13609;SDS011;6876;50.788;4.940;2023-01-16T08:39:27;1999.90;;;999.90;;
13609;SDS011;6876;50.788;4.940;2023-01-16T08:42:14;1999.90;;;999.90;;
13609;SDS011;6876;50.788;4.940;2023-01-16T08:45:20;1999.90;;;999.90;;
13609;SDS011;6876;50.788;4.940;2023-01-16T08:48:24;1999.90;;;999.90;;
13609;SDS011;6876;50.788;4.940;2023-01-16T08:51:30;1999.90;;;999.90;;
13609;SDS011;6876;50.788;4.940;2023-01-16T08:54:18;1999.90;;;999.90;;
13609;SDS011;6876;50.788;4.940;2023-01-16T08:57:06;1999.90;;;999.90;;
13609;SDS011;6876;50.788;4.940;2023-01-16T08:59:55;1999.90;;;999.90;;
13609;SDS011;6876;50.788;4.940;2023-01-16T09:02:44;1999.90;;;999.90;;
13609;SDS011;6876;50.788;4.940;2023-01-16T09:05:31;1999.90;;;999.90;;
13609;SDS011;6876;50.788;4.940;2023-01-16T09:08:18;1999.90;;;999.90;;
13609;SDS011;6876;50.788;4.940;2023-01-16T09:11:05;1999.90;;;999.90;;
13609;SDS011;6876;50.788;4.940;2023-01-16T09:14:10;1999.90;;;999.90;;
13609;SDS011;6876;50.788;4.940;2023-01-16T09:16:58;1999.90;;;999.90;;
13609;SDS011;6876;50.788;4.940;2023-01-16T09:19:47;1999.90;;;999.90;;
13609;SDS011;6876;50.788;4.940;2023-01-16T09:22:34;1999.90;;;999.90;;
13609;SDS011;6876;50.788;4.940;2023-01-16T09:25:21;1999.90;;;999.90;;
13609;SDS011;6876;50.788;4.940;2023-01-16T09:28:08;1999.90;;;999.90;;
13609;SDS011;6876;50.788;4.940;2023-01-16T09:30:56;1999.90;;;999.90;;
13609;SDS011;6876;50.788;4.940;2023-01-16T09:33:43;1999.90;;;999.90;;
13609;SDS011;6876;50.788;4.940;2023-01-16T09:36:32;1999.90;;;999.90;;
13609;SDS011;6876;50.788;4.940;2023-01-16T09:39:19;1999.90;;;999.90;;
13609;SDS011;6876;50.788;4.940;2023-01-16T09:42:13;1999.90;;;999.90;;
13609;SDS011;6876;50.788;4.940;2023-01-16T09:45:37;1999.90;;;999.90;;
13609;SDS011;6876;50.788;4.940;2023-01-16T09:48:26;1999.90;;;999.90;;
13609;SDS011;6876;50.788;4.940;2023-01-16T09:51:18;1999.90;;;999.90;;
13609;SDS011;6876;50.788;4.940;2023-01-16T09:54:10;1999.90;;;999.90;;
13609;SDS011;6876;50.788;4.940;2023-01-16T09:57:28;1999.90;;;999.90;;
13609;SDS011;6876;50.788;4.940;2023-01-16T10:00:36;1999.90;;;999.90;;
13609;SDS011;6876;50.788;4.940;2023-01-16T10:03:25;1999.90;;;999.90;;
13609;SDS011;6876;50.788;4.940;2023-01-16T10:06:15;1999.90;;;999.90;;
13609;SDS011;6876;50.788;4.940;2023-01-16T10:09:12;1999.90;;;999.90;;
13609;SDS011;6876;50.788;4.940;2023-01-16T10:12:05;1999.90;;;999.90;;
13609;SDS011;6876;50.788;4.940;2023-01-16T10:15:04;1999.90;;;999.90;;
13609;SDS011;6876;50.788;4.940;2023-01-16T10:18:03;1999.90;;;999.90;;
13609;SDS011;6876;50.788;4.940;2023-01-16T10:24:19;1999.90;;;999.90;;
13609;SDS011;6876;50.788;4.940;2023-01-16T10:27:16;1999.90;;;999.90;;
13609;SDS011;6876;50.788;4.940;2023-01-16T10:30:08;1999.90;;;999.90;;
13609;SDS011;6876;50.788;4.940;2023-01-16T10:33:01;1999.90;;;999.90;;
13609;SDS011;6876;50.788;4.940;2023-01-16T10:35:54;1999.90;;;999.90;;
13609;SDS011;6876;50.788;4.940;2023-01-16T10:38:44;1999.90;;;999.90;;
13609;SDS011;6876;50.788;4.940;2023-01-16T10:41:39;1999.90;;;999.90;;
13609;SDS011;6876;50.788;4.940;2023-01-16T10:44:50;1999.90;;;999.90;;
13609;SDS011;6876;50.788;4.940;2023-01-16T10:48:01;1999.90;;;999.90;;
13609;SDS011;6876;50.788;4.940;2023-01-16T10:51:06;1999.90;;;999.90;;
13609;SDS011;6876;50.788;4.940;2023-01-16T10:53:54;1999.90;;;999.90;;
13609;SDS011;6876;50.788;4.940;2023-01-16T10:56:45;68.53;;;65.23;;
13609;SDS011;6876;50.788;4.940;2023-01-16T10:59:33;714.83;;;379.23;;
13609;SDS011;6876;50.788;4.940;2023-01-16T11:02:23;1999.90;;;999.90;;
13609;SDS011;6876;50.788;4.940;2023-01-16T11:05:22;1999.90;;;999.90;;
13609;SDS011;6876;50.788;4.940;2023-01-16T11:08:15;60.37;;;57.50;;
13609;SDS011;6876;50.788;4.940;2023-01-16T11:11:04;1999.90;;;999.90;;
13609;SDS011;6876;50.788;4.940;2023-01-16T11:14:14;68.87;;;65.57;;
13609;SDS011;6876;50.788;4.940;2023-01-16T11:17:26;84.27;;;80.27;;
13609;SDS011;6876;50.788;4.940;2023-01-16T11:20:32;66.80;;;63.67;;
13609;SDS011;6876;50.788;4.940;2023-01-16T11:23:24;67.67;;;64.47;;
13609;SDS011;6876;50.788;4.940;2023-01-16T11:26:13;73.60;;;70.07;;
13609;SDS011;6876;50.788;4.940;2023-01-16T11:29:00;68.73;;;65.47;;
13609;SDS011;6876;50.788;4.940;2023-01-16T11:31:52;1999.90;;;999.90;;
13609;SDS011;6876;50.788;4.940;2023-01-16T11:34:43;1355.27;;;687.57;;
13609;SDS011;6876;50.788;4.940;2023-01-16T11:37:33;62.77;;;59.77;;
13609;SDS011;6876;50.788;4.940;2023-01-16T11:40:20;64.47;;;61.47;;
13609;SDS011;6876;50.788;4.940;2023-01-16T11:43:12;1353.57;;;685.93;;
13609;SDS011;6876;50.788;4.940;2023-01-16T11:46:25;1999.90;;;999.90;;
13609;SDS011;6876;50.788;4.940;2023-01-16T11:49:23;1999.90;;;999.90;;
13609;SDS011;6876;50.788;4.940;2023-01-16T11:52:14;1999.90;;;999.90;;
13609;SDS011;6876;50.788;4.940;2023-01-16T11:55:12;1999.90;;;999.90;;
13609;SDS011;6876;50.788;4.940;2023-01-16T11:58:02;1999.90;;;999.90;;
13609;SDS011;6876;50.788;4.940;2023-01-16T12:00:58;1999.90;;;999.90;;
13609;SDS011;6876;50.788;4.940;2023-01-16T12:04:01;1999.90;;;999.90;;
13609;SDS011;6876;50.788;4.940;2023-01-16T12:06:59;1999.90;;;999.90;;
13609;SDS011;6876;50.788;4.940;2023-01-16T12:09:52;1999.90;;;999.90;;
13609;SDS011;6876;50.788;4.940;2023-01-16T12:12:46;1999.90;;;999.90;;
13609;SDS011;6876;50.788;4.940;2023-01-16T12:16:00;1999.90;;;999.90;;
13609;SDS011;6876;50.788;4.940;2023-01-16T12:19:02;1999.90;;;999.90;;
13609;SDS011;6876;50.788;4.940;2023-01-16T12:22:10;1999.90;;;999.90;;
13609;SDS011;6876;50.788;4.940;2023-01-16T12:25:05;1999.90;;;999.90;;
13609;SDS011;6876;50.788;4.940;2023-01-16T12:28:09;1999.90;;;999.90;;
13609;SDS011;6876;50.788;4.940;2023-01-16T12:34:24;1999.90;;;999.90;;
13609;SDS011;6876;50.788;4.940;2023-01-16T12:37:32;1999.90;;;999.90;;
13609;SDS011;6876;50.788;4.940;2023-01-16T12:40:31;1999.90;;;999.90;;
13609;SDS011;6876;50.788;4.940;2023-01-16T12:43:30;1999.90;;;999.90;;
13609;SDS011;6876;50.788;4.940;2023-01-16T12:46:28;1999.90;;;999.90;;
13609;SDS011;6876;50.788;4.940;2023-01-16T12:49:28;1999.90;;;999.90;;
13609;SDS011;6876;50.788;4.940;2023-01-16T12:52:32;1999.90;;;999.90;;
13609;SDS011;6876;50.788;4.940;2023-01-16T12:55:35;1999.90;;;999.90;;
13609;SDS011;6876;50.788;4.940;2023-01-16T12:58:30;1999.90;;;999.90;;
13609;SDS011;6876;50.788;4.940;2023-01-16T13:01:20;1999.90;;;999.90;;
13609;SDS011;6876;50.788;4.940;2023-01-16T13:04:11;1999.90;;;999.90;;
13609;SDS011;6876;50.788;4.940;2023-01-16T13:07:01;1999.90;;;999.90;;
13609;SDS011;6876;50.788;4.940;2023-01-16T13:09:52;1999.90;;;999.90;;
13609;SDS011;6876;50.788;4.940;2023-01-16T13:13:07;1999.90;;;999.90;;
13609;SDS011;6876;50.788;4.940;2023-01-16T13:16:12;1999.90;;;999.90;;
13609;SDS011;6876;50.788;4.940;2023-01-16T13:19:04;1999.90;;;999.90;;
13609;SDS011;6876;50.788;4.940;2023-01-16T13:22:01;1999.90;;;999.90;;
13609;SDS011;6876;50.788;4.940;2023-01-16T13:24:55;1999.90;;;999.90;;
13609;SDS011;6876;50.788;4.940;2023-01-16T13:27:51;1999.90;;;999.90;;
13609;SDS011;6876;50.788;4.940;2023-01-16T13:30:42;1999.90;;;999.90;;
13609;SDS011;6876;50.788;4.940;2023-01-16T13:33:30;1999.90;;;999.90;;
13609;SDS011;6876;50.788;4.940;2023-01-16T13:36:27;1999.90;;;999.90;;
13609;SDS011;6876;50.788;4.940;2023-01-16T13:39:58;1999.90;;;999.90;;
13609;SDS011;6876;50.788;4.940;2023-01-16T13:42:59;1999.90;;;999.90;;
13609;SDS011;6876;50.788;4.940;2023-01-16T13:46:03;1999.90;;;999.90;;
13609;SDS011;6876;50.788;4.940;2023-01-16T13:48:51;1999.90;;;999.90;;
13609;SDS011;6876;50.788;4.940;2023-01-16T13:51:40;1999.90;;;999.90;;
13609;SDS011;6876;50.788;4.940;2023-01-16T13:54:31;1999.90;;;999.90;;
13609;SDS011;6876;50.788;4.940;2023-01-16T13:57:25;1999.90;;;999.90;;
13609;SDS011;6876;50.788;4.940;2023-01-16T14:00:16;1999.90;;;999.90;;
13609;SDS011;6876;50.788;4.940;2023-01-16T14:03:16;1999.90;;;999.90;;
13609;SDS011;6876;50.788;4.940;2023-01-16T14:06:17;1999.90;;;999.90;;
13609;SDS011;6876;50.788;4.940;2023-01-16T14:09:11;1999.90;;;999.90;;
13609;SDS011;6876;50.788;4.940;2023-01-16T14:12:16;1999.90;;;999.90;;
13609;SDS011;6876;50.788;4.940;2023-01-16T14:15:15;1999.90;;;999.90;;
13609;SDS011;6876;50.788;4.940;2023-01-16T14:18:22;1999.90;;;999.90;;
13609;SDS011;6876;50.788;4.940;2023-01-16T14:21:23;1999.90;;;999.90;;
13609;SDS011;6876;50.788;4.940;2023-01-16T14:24:13;1999.90;;;999.90;;
13609;SDS011;6876;50.788;4.940;2023-01-16T14:27:03;1999.90;;;999.90;;
13609;SDS011;6876;50.788;4.940;2023-01-16T14:29:51;1999.90;;;999.90;;
13609;SDS011;6876;50.788;4.940;2023-01-16T14:32:46;1999.90;;;999.90;;
13609;SDS011;6876;50.788;4.940;2023-01-16T14:35:40;1999.90;;;999.90;;
13609;SDS011;6876;50.788;4.940;2023-01-16T14:38:31;1999.90;;;999.90;;
13609;SDS011;6876;50.788;4.940;2023-01-16T14:41:21;1999.90;;;999.90;;
13609;SDS011;6876;50.788;4.940;2023-01-16T14:44:31;1999.90;;;999.90;;
13609;SDS011;6876;50.788;4.940;2023-01-16T14:47:44;1999.90;;;999.90;;
13609;SDS011;6876;50.788;4.940;2023-01-16T14:50:58;1999.90;;;999.90;;
13609;SDS011;6876;50.788;4.940;2023-01-16T14:54:06;1999.90;;;999.90;;
13609;SDS011;6876;50.788;4.940;2023-01-16T14:57:13;1999.90;;;999.90;;
13609;SDS011;6876;50.788;4.940;2023-01-16T15:00:04;1999.90;;;999.90;;
13609;SDS011;6876;50.788;4.940;2023-01-16T15:02:57;1999.90;;;999.90;;
13609;SDS011;6876;50.788;4.940;2023-01-16T15:05:48;1999.90;;;999.90;;
13609;SDS011;6876;50.788;4.940;2023-01-16T15:08:39;1999.90;;;999.90;;
13609;SDS011;6876;50.788;4.940;2023-01-16T15:11:28;1999.90;;;999.90;;
13609;SDS011;6876;50.788;4.940;2023-01-16T15:14:20;1999.90;;;999.90;;
13609;SDS011;6876;50.788;4.940;2023-01-16T15:17:16;1999.90;;;999.90;;
13609;SDS011;6876;50.788;4.940;2023-01-16T15:20:27;1999.90;;;999.90;;
13609;SDS011;6876;50.788;4.940;2023-01-16T15:23:33;1999.90;;;999.90;;
13609;SDS011;6876;50.788;4.940;2023-01-16T15:26:28;1999.90;;;999.90;;
13609;SDS011;6876;50.788;4.940;2023-01-16T15:29:33;1999.90;;;999.90;;
13609;SDS011;6876;50.788;4.940;2023-01-16T15:35:39;1999.90;;;999.90;;
13609;SDS011;6876;50.788;4.940;2023-01-16T15:38:26;1999.90;;;999.90;;
13609;SDS011;6876;50.788;4.940;2023-01-16T15:41:22;1999.90;;;999.90;;
13609;SDS011;6876;50.788;4.940;2023-01-16T15:44:27;1999.90;;;999.90;;
13609;SDS011;6876;50.788;4.940;2023-01-16T15:47:36;1999.90;;;999.90;;
13609;SDS011;6876;50.788;4.940;2023-01-16T15:50:47;1999.90;;;999.90;;
13609;SDS011;6876;50.788;4.940;2023-01-16T15:53:41;1999.90;;;999.90;;
13609;SDS011;6876;50.788;4.940;2023-01-16T15:56:33;1999.90;;;999.90;;
13609;SDS011;6876;50.788;4.940;2023-01-16T15:59:24;1999.90;;;999.90;;
13609;SDS011;6876;50.788;4.940;2023-01-16T16:02:15;1999.90;;;999.90;;
13609;SDS011;6876;50.788;4.940;2023-01-16T16:05:04;1999.90;;;999.90;;
13609;SDS011;6876;50.788;4.940;2023-01-16T16:07:53;1999.90;;;999.90;;
13609;SDS011;6876;50.788;4.940;2023-01-16T16:10:41;1999.90;;;999.90;;
13609;SDS011;6876;50.788;4.940;2023-01-16T16:13:46;1999.90;;;999.90;;
13609;SDS011;6876;50.788;4.940;2023-01-16T16:16:34;1999.90;;;999.90;;
13609;SDS011;6876;50.788;4.940;2023-01-16T16:19:39;1999.90;;;999.90;;
13609;SDS011;6876;50.788;4.940;2023-01-16T16:22:26;1999.90;;;999.90;;
13609;SDS011;6876;50.788;4.940;2023-01-16T16:25:33;1999.90;;;999.90;;
13609;SDS011;6876;50.788;4.940;2023-01-16T16:28:24;1999.90;;;999.90;;
13609;SDS011;6876;50.788;4.940;2023-01-16T16:31:13;1999.90;;;999.90;;
13609;SDS011;6876;50.788;4.940;2023-01-16T16:34:05;1999.90;;;999.90;;
13609;SDS011;6876;50.788;4.940;2023-01-16T16:37:01;1999.90;;;999.90;;
13609;SDS011;6876;50.788;4.940;2023-01-16T16:39:52;1999.90;;;999.90;;
13609;SDS011;6876;50.788;4.940;2023-01-16T16:42:54;1999.90;;;999.90;;